RKSI/ICN METAR and TAF weather

Enter ICAO airport designator
Station Type Date Time Source
RKSI METAR 2019/06/26 05:30 UTC NOAA

RKSI 260530Z 20005KT 170V230 7000 SCT040 BKN150 27/14 Q1008 NOSIG


Station Type Date Time Source
RKSI Decoded METAR 2019/06/26 05:30 UTC NOAA

Incheon International Airport, Korea, South (RKSI) 37-28N 126-27E
Jun 26, 2019 - 01:30 AM EDT / 2019.06.26 0530 UTC
Wind: from the SSW (200 degrees) at 6 MPH (5 KT) (direction variable):0
Visibility: 4 mile(s):0
Sky conditions: mostly cloudy
Temperature: 80 F (27 C)
Dew Point: 57 F (14 C)
Relative Humidity: 44%
Pressure (altimeter): 29.77 in. Hg (1008 hPa)
ob: RKSI 260530Z 20005KT 170V230 7000 SCT040 BKN150 27/14 Q1008 NOSIG
cycle: 5

Station Type Date Time Source
RKSI TAF 2019/06/26 06:06 UTC NOAA

TAF RKSI 260500Z 2606/2712 17010KT 6000 -RA FEW010 BKN025 OVC080 TN21/2621Z TX27/2706Z
BECMG 2612/2613 06008KT 4200
BECMG 2700/2701 33008KT 2800 -DZ
BECMG 2702/2703 26010KT 6000 NSW SCT030 BKN180
BECMG 2710/2711 20010KT

Example: see airport list